Killen, Alabama
Current Conditions -  °F | °C
As of 7:53 AM on Sunday 23 Nov 2014 (Local Time) from KMSL Reporting Station
Overcast Overcast  
Wind Chill: 56°   Ceiling: 1100
Heat Index: 56°   Visibility: 10mi
Dew Point: 51°   Wind: 10mph
Humidity: 84%   Direction: 120°ESE
Pressure: 29.84"   Gusts: NA
Location:  34.86°N, 87.54°W
Report Text: KMSL 231353Z AUTO 12009KT 10SM OVC011 13/11 A2984 RMK AO2 SLP103 T01330106
Loading
Personal Weather Stations






























Interactive Weather Map New forecast layout! Learn more

10-Day Weather Forecast

Advertisements
Track Severe Weather on mobile